Time;durP1;ratioP1;P1;durP2;ratioP2;P2;SDS_P1;SDS_P2;PMS_P1;PMS_P2;Temp;Humidity;BMP_temperature;BMP_pressure;BME280_temperature;BME280_humidity;BME280_pressure;Samples;Min_cycle;Max_cycle;Signal;HPM_P1;HPM_P2
2022/05/10 00:01:48;;;;;;;9.35;6.82;;;16.60;99.90;;;;;;5094709;28;20028;-65
2022/05/10 00:04:14;;;;;;;7.65;6.68;;;16.60;99.90;;;;;;5095149;28;20077;-65
2022/05/10 00:06:44;;;;;;;7.88;6.18;;;16.50;99.90;;;;;;5094735;28;20081;-64
2022/05/10 00:09:11;;;;;;;9.90;6.93;;;16.50;99.90;;;;;;5076482;28;20039;-65
2022/05/10 00:11:38;;;;;;;7.32;6.60;;;16.40;99.90;;;;;;5077239;28;20027;-65
2022/05/10 00:14:04;;;;;;;11.20;6.53;;;16.40;99.90;;;;;;5094475;28;20081;-65
2022/05/10 00:16:31;;;;;;;8.55;6.63;;;16.30;99.90;;;;;;5076292;28;20110;-65
2022/05/10 00:18:57;;;;;;;10.07;6.63;;;16.30;99.90;;;;;;5094377;28;20534;-65
2022/05/10 00:21:24;;;;;;;7.50;6.40;;;16.20;99.90;;;;;;5094256;28;20028;-65
2022/05/10 00:23:51;;;;;;;11.18;6.43;;;16.10;99.90;;;;;;5094191;28;20357;-65
2022/05/10 00:26:17;;;;;;;10.57;7.18;;;16.00;99.90;;;;;;5094376;28;20440;-64
2022/05/10 00:28:43;;;;;;;7.85;6.65;;;15.90;99.90;;;;;;5094720;28;20059;-66
2022/05/10 00:31:10;;;;;;;11.35;8.60;;;15.80;99.90;;;;;;5094983;28;20388;-65
2022/05/10 00:33:37;;;;;;;7.57;6.78;;;15.80;99.90;;;;;;5094405;28;20405;-65
2022/05/10 00:36:03;;;;;;;8.68;7.38;;;15.80;99.90;;;;;;5093928;28;20031;-65
2022/05/10 00:38:32;;;;;;;;;;;15.80;99.90;;;;;;5094465;28;20035;-66
2022/05/10 00:41:12;;;;;;;9.32;6.95;;;15.80;99.90;;;;;;5094104;28;19987;-65
2022/05/10 00:43:43;;;;;;;7.60;6.82;;;15.80;99.90;;;;;;5094315;28;20024;-65
2022/05/10 00:46:17;;;;;;;8.48;6.75;;;15.90;99.90;;;;;;5094036;28;20109;-65
2022/05/10 00:48:52;;;;;;;8.20;6.57;;;15.90;99.90;;;;;;5093748;28;20047;-66
2022/05/10 00:51:44;;;;;;;6.55;5.70;;;15.90;99.90;;;;;;5093879;28;20055;-65
2022/05/10 00:54:32;;;;;;;8.10;6.45;;;15.90;99.90;;;;;;5075736;28;20036;-65
2022/05/10 00:57:14;;;;;;;7.45;6.60;;;15.80;99.90;;;;;;5075513;28;20477;-65
2022/05/10 01:00:00;;;;;;;15.88;6.78;;;15.80;99.90;;;;;;5093990;28;20074;-65
2022/05/10 01:02:46;;;;;;;8.77;6.97;;;15.80;99.90;;;;;;5094809;28;20020;-65
2022/05/10 01:05:30;;;;;;;10.18;7.25;;;15.70;99.90;;;;;;5095633;28;20032;-66
2022/05/10 01:08:08;;;;;;;9.38;6.47;;;15.70;99.90;;;;;;5077510;28;20052;-65
2022/05/10 01:10:52;;;;;;;8.55;6.88;;;15.70;99.90;;;;;;5076240;28;20060;-64
2022/05/10 01:13:37;;;;;;;8.93;7.13;;;15.70;99.90;;;;;;5093941;28;20077;-65
2022/05/10 01:16:12;;;;;;;10.57;7.13;;;15.70;99.90;;;;;;5093666;28;20486;-64
2022/05/10 01:18:39;;;;;;;9.43;7.72;;;15.70;99.90;;;;;;5093050;28;20044;-65
2022/05/10 01:21:36;;;;;;;9.82;7.88;;;15.70;99.90;;;;;;5093442;28;20024;-65
2022/05/10 01:24:13;;;;;;;10.70;7.95;;;15.70;99.90;;;;;;5093011;28;20357;-65
2022/05/10 01:26:48;;;;;;;10.75;7.78;;;15.80;99.90;;;;;;5093419;28;20035;-64
2022/05/10 01:29:43;;;;;;;12.93;8.80;;;15.80;99.90;;;;;;5129104;22;20126;-64
2022/05/10 01:35:01;;;;;;;9.70;8.35;;;15.60;99.90;;;;;;5113662;28;20125;-65
2022/05/10 01:37:31;;;;;;;10.70;7.95;;;15.60;99.90;;;;;;5113248;28;20116;-65
2022/05/10 01:40:32;;;;;;;9.70;7.93;;;15.50;99.90;;;;;;5113364;28;20081;-64
2022/05/10 01:43:27;;;;;;;11.57;7.75;;;15.50;99.90;;;;;;5111758;28;20060;-65
2022/05/10 01:46:03;;;;;;;7.65;6.85;;;15.50;99.90;;;;;;5111819;28;20035;-65
2022/05/10 01:48:34;;;;;;;9.93;6.57;;;15.50;99.90;;;;;;5112802;28;20027;-64
2022/05/10 01:51:33;;;;;;;9.93;7.70;;;15.50;99.90;;;;;;5113439;28;20023;-64
2022/05/10 01:53:59;;;;;;;7.90;6.95;;;15.60;99.90;;;;;;5112142;28;20040;-65
2022/05/10 01:56:28;;;;;;;9.77;7.40;;;15.60;99.90;;;;;;5113125;28;20034;-65
2022/05/10 01:58:54;;;;;;;8.40;7.35;;;15.50;99.90;;;;;;5113119;28;20482;-65
2022/05/10 02:01:32;;;;;;;8.98;6.75;;;15.50;99.90;;;;;;5113068;28;20028;-65
2022/05/10 02:04:13;;;;;;;9.32;7.88;;;15.50;99.90;;;;;;5113443;28;20461;-64
2022/05/10 02:06:54;;;;;;;9.60;7.32;;;15.50;99.90;;;;;;5113269;28;20077;-64
2022/05/10 02:09:38;;;;;;;11.85;8.27;;;15.50;99.90;;;;;;5113049;28;20141;-64
2022/05/10 02:12:17;;;;;;;11.57;7.63;;;15.50;99.90;;;;;;5113279;28;20141;-64
2022/05/10 02:14:58;;;;;;;9.20;7.68;;;15.50;99.90;;;;;;5113024;28;20020;-64
2022/05/10 02:18:08;;;;;;;7.60;6.80;;;15.60;99.90;;;;;;5113085;28;20436;-64
2022/05/10 02:20:49;;;;;;;12.55;7.80;;;15.50;99.90;;;;;;5091193;28;20476;-64
2022/05/10 02:23:19;;;;;;;9.55;7.97;;;15.40;99.90;;;;;;5090400;28;20037;-63
2022/05/10 02:25:54;;;;;;;8.35;7.40;;;15.40;99.90;;;;;;5073990;28;20048;-64
2022/05/10 02:28:42;;;;;;;10.48;7.75;;;15.40;99.90;;;;;;5090393;28;20081;-64
2022/05/10 02:31:18;;;;;;;10.65;8.20;;;15.30;99.90;;;;;;5073227;28;20024;-64
2022/05/10 02:33:46;;;;;;;8.93;7.93;;;15.30;99.90;;;;;;5090548;28;20023;-64
2022/05/10 02:36:11;;;;;;;11.23;8.18;;;15.20;99.90;;;;;;5090207;28;20032;-64
2022/05/10 02:38:39;;;;;;;9.63;8.60;;;15.20;99.90;;;;;;5090197;28;20032;-64
2022/05/10 02:41:14;;;;;;;8.95;8.00;;;15.20;99.90;;;;;;5090113;28;20060;-64
2022/05/10 02:44:01;;;;;;;9.70;8.60;;;15.20;99.90;;;;;;5090522;28;20040;-64
2022/05/10 02:46:27;;;;;;;9.98;8.90;;;15.20;99.90;;;;;;5090348;28;20539;-64
2022/05/10 02:48:53;;;;;;;13.43;8.88;;;15.10;99.90;;;;;;5089918;28;20126;-64
2022/05/10 02:51:20;;;;;;;11.23;8.95;;;15.10;99.90;;;;;;5090235;28;20456;-65
2022/05/10 02:53:46;;;;;;;10.50;8.70;;;15.00;99.90;;;;;;5090154;28;20059;-64
2022/05/10 02:56:19;;;;;;;15.57;9.95;;;15.00;99.90;;;;;;5101909;28;20111;-64
2022/05/10 02:58:46;;;;;;;10.55;8.95;;;15.00;99.90;;;;;;5112825;28;20020;-64
2022/05/10 03:01:33;;;;;;;12.73;10.73;;;14.90;99.90;;;;;;5116111;28;20021;-64
2022/05/10 03:04:00;;;;;;;12.80;9.88;;;14.90;99.90;;;;;;5116140;28;20027;-64
2022/05/10 03:06:27;;;;;;;13.25;9.70;;;14.80;99.90;;;;;;5116192;28;20030;-64
2022/05/10 03:08:53;;;;;;;11.70;9.38;;;14.80;99.90;;;;;;5116025;28;20119;-64
2022/05/10 03:11:19;;;;;;;12.25;10.02;;;14.70;99.90;;;;;;5116519;28;20496;-64
2022/05/10 03:13:47;;;;;;;10.95;9.80;;;14.70;99.90;;;;;;5115973;28;20028;-65
2022/05/10 03:16:13;;;;;;;12.30;9.15;;;14.70;99.90;;;;;;5116021;28;20091;-63
2022/05/10 03:18:39;;;;;;;10.70;9.50;;;14.70;99.90;;;;;;5115939;28;20062;-64
2022/05/10 03:21:04;;;;;;;11.17;9.57;;;14.60;99.90;;;;;;5115873;28;20036;-64
2022/05/10 03:23:31;;;;;;;12.60;9.47;;;14.60;99.90;;;;;;5114645;28;20035;-64
2022/05/10 03:25:57;;;;;;;11.02;8.07;;;14.60;99.90;;;;;;5115655;28;20617;-65
2022/05/10 03:28:23;;;;;;;;;;;14.60;99.90;;;;;;5116050;28;20031;-64
2022/05/10 03:30:49;;;;;;;10.60;8.90;;;14.50;99.90;;;;;;5116072;28;20271;-64
2022/05/10 03:33:15;;;;;;;9.68;8.45;;;14.60;99.90;;;;;;5115758;28;20102;-64
2022/05/10 03:35:41;;;;;;;10.45;7.95;;;14.50;99.90;;;;;;5115637;28;20028;-64
2022/05/10 03:38:07;;;;;;;10.53;8.97;;;14.50;99.90;;;;;;5114158;28;20027;-64
2022/05/10 03:40:32;;;;;;;9.70;8.30;;;14.50;99.90;;;;;;5115450;28;20261;-64
2022/05/10 03:42:58;;;;;;;13.60;9.57;;;14.50;99.90;;;;;;5115532;28;20027;-64
2022/05/10 03:45:24;;;;;;;12.50;9.37;;;14.50;99.90;;;;;;5115926;28;20066;-64
2022/05/10 03:47:51;;;;;;;10.25;7.95;;;14.70;99.90;;;;;;5115492;28;20270;-64
2022/05/10 03:50:21;;;;;;;9.48;8.43;;;14.60;99.90;;;;;;5115417;27;20024;-65
2022/05/10 03:52:47;;;;;;;10.80;9.02;;;14.60;99.90;;;;;;5115113;28;20125;-64
2022/05/10 03:55:16;;;;;;;10.40;8.87;;;14.50;99.90;;;;;;5113804;28;20114;-64
2022/05/10 03:57:42;;;;;;;10.90;8.57;;;14.50;99.90;;;;;;5114834;28;20771;-64
2022/05/10 04:00:11;;;;;;;9.98;8.40;;;14.50;99.90;;;;;;5113641;28;20028;-64
2022/05/10 04:02:37;;;;;;;9.65;8.65;;;14.50;99.90;;;;;;5114933;28;20046;-66
2022/05/10 04:05:04;;;;;;;10.10;8.18;;;14.50;99.90;;;;;;5114863;28;20039;-65
2022/05/10 04:07:30;;;;;;;10.57;8.73;;;14.50;99.90;;;;;;5114878;28;20134;-65
2022/05/10 04:09:56;;;;;;;11.07;8.55;;;14.50;99.90;;;;;;5115266;28;20031;-64
2022/05/10 04:12:21;;;;;;;9.82;8.82;;;14.50;99.90;;;;;;5115127;28;20038;-65
2022/05/10 04:14:47;;;;;;;10.77;9.20;;;14.50;99.90;;;;;;5114818;28;20020;-64
2022/05/10 04:17:12;;;;;;;13.07;9.40;;;14.50;99.90;;;;;;5113340;28;20706;-64
2022/05/10 04:19:38;;;;;;;12.13;8.83;;;14.50;99.90;;;;;;5114707;28;20480;-64
2022/05/10 04:22:04;;;;;;;11.13;9.00;;;14.50;99.90;;;;;;5114662;28;20497;-64
2022/05/10 04:24:30;;;;;;;11.38;8.77;;;14.50;99.90;;;;;;5113277;28;20024;-64
2022/05/10 04:26:56;;;;;;;11.60;8.48;;;14.50;99.90;;;;;;5114740;28;20040;-64
2022/05/10 04:29:21;;;;;;;9.63;8.63;;;14.60;99.90;;;;;;5114234;28;20448;-64
2022/05/10 04:31:47;;;;;;;12.07;9.27;;;14.60;99.90;;;;;;5114298;28;20106;-64
2022/05/10 04:34:13;;;;;;;9.73;8.20;;;14.60;99.90;;;;;;5114262;28;20702;-62
2022/05/10 04:36:38;;;;;;;10.70;8.17;;;14.60;99.90;;;;;;5114086;28;20480;-64
2022/05/10 04:39:04;;;;;;;10.98;8.30;;;14.60;99.90;;;;;;5112942;28;20024;-63
2022/05/10 04:41:33;;;;;;;10.48;8.57;;;14.70;99.90;;;;;;5114107;28;20361;-63
2022/05/10 04:44:02;;;;;;;10.48;8.57;;;14.60;99.90;;;;;;5114143;28;20091;-64
2022/05/10 04:46:30;;;;;;;9.38;7.88;;;14.60;99.90;;;;;;5114546;28;20023;-64
2022/05/10 04:48:56;;;;;;;12.93;8.00;;;14.60;99.90;;;;;;5114197;28;20050;-64
2022/05/10 04:51:21;;;;;;;12.07;8.05;;;14.60;99.90;;;;;;5113886;28;20024;-66
2022/05/10 04:53:48;;;;;;;9.55;7.85;;;14.60;99.90;;;;;;5113811;28;20038;-64
2022/05/10 04:56:13;;;;;;;8.65;7.75;;;14.70;99.90;;;;;;5113928;28;20043;-65
2022/05/10 04:58:39;;;;;;;10.43;7.55;;;14.70;99.90;;;;;;5112417;28;20527;-65
2022/05/10 05:01:07;;;;;;;10.40;7.93;;;14.80;99.90;;;;;;5113673;28;20020;-65
2022/05/10 05:03:33;;;;;;;12.77;8.77;;;14.80;99.90;;;;;;5112433;28;20262;-64
2022/05/10 05:05:59;;;;;;;10.55;8.18;;;14.90;99.90;;;;;;5113654;28;20072;-65
2022/05/10 05:08:24;;;;;;;11.48;8.40;;;15.20;99.90;;;;;;5113566;28;20100;-65
2022/05/10 05:10:52;;;;;;;10.98;8.30;;;15.20;99.90;;;;;;5113549;28;20476;-66
2022/05/10 05:13:17;;;;;;;10.20;8.30;;;15.20;99.90;;;;;;5113381;28;20506;-65
2022/05/10 05:15:43;;;;;;;10.70;8.87;;;15.20;99.90;;;;;;5113609;28;20028;-65
2022/05/10 05:18:09;;;;;;;10.38;8.50;;;15.10;99.90;;;;;;5113714;28;20028;-65
2022/05/10 05:20:36;;;;;;;13.50;8.88;;;15.20;99.90;;;;;;5113583;28;20379;-65
2022/05/10 05:23:08;;;;;;;11.18;8.77;;;15.30;99.90;;;;;;5112662;28;20020;-66
2022/05/10 05:25:37;;;;;;;10.60;8.70;;;15.50;99.90;;;;;;5112121;28;20418;-65
2022/05/10 05:28:03;;;;;;;10.82;8.55;;;15.50;99.90;;;;;;5113135;28;20376;-65
2022/05/10 05:30:29;;;;;;;;;;;15.60;99.90;;;;;;5113897;28;20028;-65
2022/05/10 05:32:54;;;;;;;11.52;8.57;;;15.60;99.90;;;;;;5113424;28;19903;-65
2022/05/10 05:35:20;;;;;;;9.73;8.57;;;15.80;99.90;;;;;;5112260;28;20023;-65
2022/05/10 05:37:46;;;;;;;13.25;8.40;;;15.80;99.90;;;;;;5113339;28;20036;-65
2022/05/10 05:40:16;;;;;;;10.40;8.93;;;16.00;99.90;;;;;;5113432;28;20012;-65
2022/05/10 05:42:42;;;;;;;10.57;8.75;;;15.90;99.90;;;;;;5113803;28;20444;-64
2022/05/10 05:45:10;;;;;;;9.68;8.63;;;15.90;99.90;;;;;;5112978;28;20061;-64
2022/05/10 05:47:36;;;;;;;11.00;9.15;;;16.00;99.90;;;;;;5113269;28;20515;-64
2022/05/10 05:50:03;;;;;;;;;;;16.20;99.90;;;;;;5114153;28;20084;-64
2022/05/10 05:52:28;;;;;;;13.43;9.18;;;16.40;99.90;;;;;;5112451;28;19904;-64
2022/05/10 05:54:54;;;;;;;14.13;8.57;;;16.50;99.90;;;;;;5113046;28;20023;-64
2022/05/10 05:57:21;;;;;;;10.02;8.35;;;16.70;99.90;;;;;;5114016;28;20024;-65
2022/05/10 05:59:47;;;;;;;10.43;8.45;;;16.70;99.90;;;;;;5111755;28;20023;-64
2022/05/10 06:02:18;;;;;;;13.32;8.63;;;16.70;99.90;;;;;;5113547;28;20080;-64
2022/05/10 06:04:45;;;;;;;10.30;8.88;;;16.70;99.90;;;;;;5114211;28;20020;-66
2022/05/10 06:07:11;;;;;;;12.02;8.45;;;16.70;99.90;;;;;;5114264;28;20058;-65
2022/05/10 06:09:43;;;;;;;9.77;8.65;;;16.80;99.90;;;;;;5114196;28;20478;-65
2022/05/10 06:12:12;;;;;;;11.65;9.07;;;16.90;99.90;;;;;;5112308;28;20028;-65
2022/05/10 06:14:38;;;;;;;23.13;8.65;;;17.00;99.90;;;;;;5113963;28;20023;-66
2022/05/10 06:17:05;;;;;;;13.98;7.85;;;17.10;99.90;;;;;;5112107;28;20023;-65
2022/05/10 06:19:32;;;;;;;13.85;8.30;;;17.20;99.90;;;;;;5113150;28;20020;-64
2022/05/10 06:21:58;;;;;;;13.05;8.15;;;17.20;99.90;;;;;;5112037;28;20020;-65
2022/05/10 06:24:24;;;;;;;16.90;8.18;;;17.20;99.90;;;;;;5113485;28;20107;-65
2022/05/10 06:26:50;;;;;;;;;;;17.20;99.90;;;;;;5114191;28;20040;-64
2022/05/10 06:29:16;;;;;;;9.18;7.70;;;17.20;99.90;;;;;;5113520;28;19912;-65
2022/05/10 06:31:42;;;;;;;;;;;17.30;99.90;;;;;;5113827;28;20024;-65
2022/05/10 06:34:09;;;;;;;10.18;8.60;;;17.30;99.90;;;;;;5114475;28;19914;-64
2022/05/10 06:36:34;;;;;;;10.32;8.35;;;17.30;99.90;;;;;;5115525;28;20497;-65
2022/05/10 06:39:00;;;;;;;10.02;8.35;;;17.40;99.90;;;;;;5116783;28;20031;-64
2022/05/10 06:41:26;;;;;;;10.38;8.13;;;17.50;99.90;;;;;;5115497;28;20045;-64
2022/05/10 06:43:51;;;;;;;12.98;8.32;;;17.50;99.90;;;;;;5116682;28;20098;-68
2022/05/10 06:46:20;;;;;;;10.15;9.15;;;17.50;99.90;;;;;;5115443;28;20065;-65
2022/05/10 06:48:46;;;;;;;11.80;8.55;;;17.60;99.90;;;;;;5116799;28;20050;-64
2022/05/10 06:51:14;;;;;;;11.95;8.75;;;17.70;99.90;;;;;;5118596;28;20077;-64
2022/05/10 06:53:40;;;;;;;18.27;9.30;;;17.80;99.90;;;;;;5119229;28;20039;-64
2022/05/10 06:56:08;;;;;;;11.15;9.88;;;17.80;99.90;;;;;;5119037;28;20106;-64
2022/05/10 06:58:35;;;;;;;14.38;9.32;;;17.90;99.90;;;;;;5118141;28;20499;-65
2022/05/10 07:01:01;;;;;;;18.05;9.77;;;17.90;99.90;;;;;;5118282;28;20106;-65
2022/05/10 07:03:29;;;;;;;;;;;18.00;99.90;;;;;;5118723;28;20028;-64
2022/05/10 07:05:55;;;;;;;12.23;8.70;;;18.10;99.90;;;;;;5118375;28;19910;-65
2022/05/10 07:08:21;;;;;;;9.57;8.55;;;18.20;99.90;;;;;;5117443;28;20067;-64
2022/05/10 07:10:47;;;;;;;9.68;8.18;;;18.20;99.90;;;;;;5116220;28;20114;-64
2022/05/10 07:13:23;;;;;;;9.50;8.13;;;18.20;99.90;;;;;;5115007;28;20470;-65
2022/05/10 07:15:49;;;;;;;9.07;8.00;;;18.30;99.90;;;;;;5116455;28;20024;-64
2022/05/10 07:18:15;;;;;;;11.73;8.68;;;18.30;99.90;;;;;;5115853;28;20390;-64
2022/05/10 07:20:41;;;;;;;11.68;8.30;;;18.40;99.90;;;;;;5116243;28;20160;-65
2022/05/10 07:23:07;;;;;;;12.85;8.35;;;18.50;99.90;;;;;;5115997;28;20153;-64
2022/05/10 07:25:33;;;;;;;10.60;8.30;;;18.60;99.90;;;;;;5115747;28;20035;-64
2022/05/10 07:27:59;;;;;;;10.70;8.18;;;18.60;99.90;;;;;;5114649;28;20035;-65
2022/05/10 07:30:26;;;;;;;12.27;8.57;;;18.70;99.90;;;;;;5115652;28;20058;-65
2022/05/10 07:32:52;;;;;;;9.75;8.75;;;18.80;99.90;;;;;;5115711;28;20094;-64
2022/05/10 07:38:05;;;;;;;10.17;8.17;;;19.10;99.90;;;;;;5116018;28;20505;-65
2022/05/10 07:40:31;;;;;;;11.45;7.82;;;19.20;99.90;;;;;;5115506;28;20020;-65
2022/05/10 07:42:56;;;;;;;10.13;7.80;;;19.30;99.90;;;;;;5115713;28;20050;-65
2022/05/10 07:45:22;;;;;;;9.07;7.80;;;19.40;99.90;;;;;;5114818;28;20027;-64
2022/05/10 07:47:48;;;;;;;11.05;8.48;;;19.60;99.90;;;;;;5115179;28;20089;-65
2022/05/10 07:50:13;;;;;;;9.65;7.75;;;19.60;99.90;;;;;;5115511;28;20031;-64
2022/05/10 07:52:40;;;;;;;10.38;8.05;;;19.70;99.90;;;;;;5115213;28;20027;-66
2022/05/10 07:55:07;;;;;;;13.30;8.80;;;19.90;99.90;;;;;;5115061;28;20076;-66
2022/05/10 07:57:32;;;;;;;9.65;8.00;;;20.00;99.90;;;;;;5115103;28;20444;-64
2022/05/10 07:59:58;;;;;;;11.23;8.25;;;20.20;99.90;;;;;;5115053;28;20035;-65
2022/05/10 08:02:23;;;;;;;9.05;8.02;;;20.40;99.90;;;;;;5115070;28;20020;-66
2022/05/10 08:04:49;;;;;;;10.68;8.55;;;20.70;99.90;;;;;;5115246;28;20193;-65
2022/05/10 08:07:15;;;;;;;11.50;8.35;;;20.80;99.90;;;;;;5113641;28;20365;-65
2022/05/10 08:09:40;;;;;;;13.75;8.38;;;21.00;99.90;;;;;;5114743;28;20027;-65
2022/05/10 08:12:06;;;;;;;11.68;8.32;;;21.10;99.90;;;;;;5114868;28;20036;-66
2022/05/10 08:14:32;;;;;;;13.10;8.77;;;21.20;99.90;;;;;;5113205;28;20073;-66
2022/05/10 08:16:57;;;;;;;10.15;8.32;;;21.40;99.90;;;;;;5114696;28;20028;-64
2022/05/10 08:19:23;;;;;;;14.70;8.50;;;22.00;99.90;;;;;;5114298;28;20016;-65
2022/05/10 08:21:48;;;;;;;;;;;23.50;99.90;;;;;;5115422;28;20419;-65
2022/05/10 08:24:14;;;;;;;8.63;7.40;;;25.10;98.40;;;;;;5113131;28;19903;-65
2022/05/10 08:26:39;;;;;;;9.48;7.63;;;26.70;95.30;;;;;;5114783;28;20050;-65
2022/05/10 08:29:05;;;;;;;7.65;6.30;;;28.40;91.80;;;;;;5114573;28;20027;-65
2022/05/10 08:31:31;;;;;;;7.78;6.88;;;29.50;88.90;;;;;;5114736;28;20023;-65
2022/05/10 08:33:56;;;;;;;9.10;6.90;;;30.80;83.80;;;;;;5112588;28;20092;-65
2022/05/10 08:36:22;;;;;;;7.75;6.22;;;32.00;78.00;;;;;;5114326;28;20090;-67
2022/05/10 08:38:48;;;;;;;7.22;5.90;;;32.60;74.20;;;;;;5114635;28;20023;-65
2022/05/10 08:41:38;;;;;;;6.32;5.63;;;33.00;71.80;;;;;;5114728;28;20031;-64
2022/05/10 08:44:12;;;;;;;6.20;5.57;;;33.20;69.60;;;;;;5114433;28;20031;-67
2022/05/10 08:46:41;;;;;;;6.20;5.60;;;34.10;67.90;;;;;;5112979;28;20129;-65
2022/05/10 08:49:14;;;;;;;6.20;5.55;;;34.10;66.50;;;;;;5113853;28;20019;-65
2022/05/10 08:51:39;;;;;;;7.45;5.45;;;34.70;65.20;;;;;;5114227;28;20024;-65
2022/05/10 08:54:06;;;;;;;5.90;5.30;;;35.40;63.70;;;;;;5113745;28;20028;-65
2022/05/10 08:56:40;;;;;;;6.13;5.05;;;35.90;62.10;;;;;;5113807;28;20068;-65
2022/05/10 08:59:29;;;;;;;6.53;5.15;;;36.70;60.00;;;;;;5113700;28;20016;-66
2022/05/10 09:02:15;;;;;;;5.72;5.10;;;37.10;59.10;;;;;;5113807;28;20051;-66
2022/05/10 09:04:51;;;;;;;6.25;5.40;;;37.10;58.40;;;;;;5114102;28;20405;-66
2022/05/10 09:07:23;;;;;;;5.95;4.95;;;37.30;57.50;;;;;;5114001;28;20027;-65
2022/05/10 09:10:11;;;;;;;9.07;5.03;;;37.30;56.60;;;;;;5112281;28;20044;-65
2022/05/10 09:12:52;;;;;;;5.47;4.97;;;37.70;56.00;;;;;;5113440;28;20035;-65
2022/05/10 09:15:18;;;;;;;5.78;5.28;;;37.80;55.10;;;;;;5113217;28;20031;-65
2022/05/10 09:17:44;;;;;;;6.07;5.47;;;37.80;55.60;;;;;;5113268;28;20020;-65
2022/05/10 09:20:11;;;;;;;7.00;5.00;;;37.90;54.50;;;;;;5111922;28;20016;-65
2022/05/10 09:23:09;;;;;;;5.60;4.60;;;37.80;54.80;;;;;;5113428;28;20130;-67
2022/05/10 09:25:39;;;;;;;5.65;4.40;;;37.70;54.30;;;;;;5113463;28;20104;-65
2022/05/10 09:28:20;;;;;;;5.20;4.57;;;37.60;54.30;;;;;;5113186;28;20070;-65
2022/05/10 09:36:26;;;;;;;6.13;5.15;;;37.80;53.50;;;;;;5113576;28;20034;-66
2022/05/10 09:39:17;;;;;;;6.78;4.82;;;38.00;53.10;;;;;;5113266;28;20107;-65
2022/05/10 09:41:47;;;;;;;5.50;4.22;;;37.50;53.40;;;;;;5112618;28;20035;-66
2022/05/10 09:44:29;;;;;;;6.63;5.03;;;37.50;53.00;;;;;;5112900;28;20475;-66
2022/05/10 09:47:17;;;;;;;7.38;4.47;;;37.60;52.80;;;;;;5112768;28;20396;-66
2022/05/10 09:49:42;;;;;;;4.88;4.47;;;38.00;52.80;;;;;;5112931;28;20030;-66
2022/05/10 09:52:20;;;;;;;4.97;4.45;;;37.80;52.40;;;;;;5112979;28;20023;-65
2022/05/10 09:54:50;;;;;;;4.88;4.35;;;37.80;52.60;;;;;;5112861;28;20437;-65
2022/05/10 09:57:34;;;;;;;6.15;4.80;;;37.60;52.30;;;;;;5113085;28;20428;-65
2022/05/10 10:00:00;;;;;;;5.10;4.60;;;37.70;52.40;;;;;;5113203;28;20028;-65
2022/05/10 10:02:32;;;;;;;6.95;5.32;;;37.50;52.70;;;;;;5112957;28;20031;-66
2022/05/10 10:04:58;;;;;;;5.28;4.78;;;37.80;52.50;;;;;;5113257;28;20020;-66
2022/05/10 10:07:27;;;;;;;4.85;4.32;;;37.90;52.30;;;;;;5113081;28;20031;-66
2022/05/10 10:10:12;;;;;;;5.30;4.63;;;38.20;52.10;;;;;;5117004;28;20371;-65
2022/05/10 10:12:41;;;;;;;5.05;4.20;;;37.90;52.30;;;;;;5116843;28;20522;-65
2022/05/10 10:15:15;;;;;;;5.07;4.38;;;37.80;52.70;;;;;;5117003;28;20122;-66
2022/05/10 10:17:50;;;;;;;5.35;4.35;;;38.10;52.20;;;;;;5115568;28;20510;-65
2022/05/10 10:20:34;;;;;;;7.20;4.65;;;37.80;52.40;;;;;;5116695;28;20047;-66
2022/05/10 10:23:03;;;;;;;5.68;4.30;;;37.10;52.50;;;;;;5116730;28;20030;-66
2022/05/10 10:25:48;;;;;;;5.38;4.63;;;37.70;52.40;;;;;;5116972;28;20028;-66
2022/05/10 10:28:31;;;;;;;4.97;3.97;;;38.20;51.60;;;;;;5117345;28;20088;-66
2022/05/10 10:31:13;;;;;;;4.32;3.90;;;38.10;50.50;;;;;;5117832;28;20043;-66
2022/05/10 10:33:43;;;;;;;4.40;4.00;;;38.10;50.50;;;;;;5115830;28;20072;-66
2022/05/10 10:36:17;;;;;;;4.78;4.38;;;38.10;51.40;;;;;;5117149;28;20023;-66
2022/05/10 10:38:58;;;;;;;5.85;4.50;;;38.10;51.60;;;;;;5116694;28;20020;-65
2022/05/10 10:41:41;;;;;;;5.82;4.10;;;37.50;51.80;;;;;;5117299;28;20027;-65
2022/05/10 10:44:25;;;;;;;4.60;3.55;;;37.80;50.80;;;;;;5117226;28;20368;-66
2022/05/10 10:47:04;;;;;;;5.40;4.13;;;37.20;50.00;;;;;;5116671;28;20059;-66
2022/05/10 10:49:43;;;;;;;4.03;3.65;;;37.10;51.30;;;;;;5117460;28;20035;-66
2022/05/10 10:52:08;;;;;;;4.45;3.67;;;37.30;51.20;;;;;;5116422;28;20027;-66
2022/05/10 10:54:35;;;;;;;5.38;3.67;;;38.10;50.30;;;;;;5116577;28;20114;-66
2022/05/10 10:57:22;;;;;;;4.07;3.78;;;38.20;50.10;;;;;;5116406;28;20080;-66
2022/05/10 11:00:06;;;;;;;4.50;4.10;;;37.40;50.90;;;;;;5114763;28;20016;-65
2022/05/10 11:02:57;;;;;;;4.10;3.47;;;37.20;51.00;;;;;;5116586;28;20035;-65
2022/05/10 11:05:45;;;;;;;4.95;3.97;;;36.30;51.30;;;;;;5116504;28;20104;-65
2022/05/10 11:08:21;;;;;;;4.07;3.78;;;35.30;52.40;;;;;;5114869;28;20506;-65
2022/05/10 11:11:09;;;;;;;4.70;3.70;;;34.30;53.60;;;;;;5116215;28;20027;-66
2022/05/10 11:13:44;;;;;;;5.57;4.00;;;33.20;53.50;;;;;;5116159;28;20079;-65
2022/05/10 11:16:29;;;;;;;4.13;3.65;;;32.00;55.20;;;;;;5117248;28;20027;-66
2022/05/10 11:19:19;;;;;;;5.70;4.03;;;31.30;56.80;;;;;;5115469;28;20480;-69
2022/05/10 11:22:28;;;;;;;4.47;4.07;;;30.70;57.60;;;;;;5115445;28;20023;-66
2022/05/10 11:25:06;;;;;;;4.40;4.00;;;30.10;59.20;;;;;;5114764;28;20380;-68
2022/05/10 11:28:09;;;;;;;5.03;4.30;;;29.90;59.90;;;;;;5115420;28;20015;-66
2022/05/10 11:31:03;;;;;;;4.63;3.95;;;29.40;59.90;;;;;;5115483;28;20066;-66
2022/05/10 11:33:46;;;;;;;6.32;4.20;;;29.00;59.50;;;;;;5115530;28;20027;-65
2022/05/10 11:36:30;;;;;;;4.43;3.70;;;28.80;59.00;;;;;;5114159;28;20023;-66
2022/05/10 11:39:24;;;;;;;5.90;4.07;;;28.70;58.40;;;;;;5115551;28;20011;-66
2022/05/10 11:42:08;;;;;;;5.93;3.80;;;28.50;58.90;;;;;;5115361;28;20019;-65
2022/05/10 11:44:55;;;;;;;5.40;3.85;;;28.40;59.30;;;;;;5114029;28;20476;-65
2022/05/10 11:47:30;;;;;;;;;;;28.30;59.60;;;;;;5114114;28;20027;-65
2022/05/10 11:50:14;;;;;;;6.25;3.80;;;28.10;60.30;;;;;;5113530;28;19911;-66
2022/05/10 11:53:11;;;;;;;5.70;3.90;;;28.20;60.80;;;;;;5115282;28;20157;-66
2022/05/10 11:55:56;;;;;;;5.85;3.85;;;28.30;60.50;;;;;;5115474;28;20023;-66
2022/05/10 11:58:24;;;;;;;8.10;5.38;;;28.40;59.90;;;;;;5115174;28;20040;-65
2022/05/10 12:00:59;;;;;;;7.95;3.97;;;28.10;60.80;;;;;;5115245;28;20498;-66
2022/05/10 12:03:41;;;;;;;5.45;3.97;;;28.00;60.90;;;;;;5115289;28;20472;-67
2022/05/10 12:06:22;;;;;;;5.35;3.95;;;28.00;61.80;;;;;;5114919;28;20045;-65
2022/05/10 12:08:48;;;;;;;6.50;4.47;;;27.80;61.30;;;;;;5115312;28;20033;-65
2022/05/10 12:11:28;;;;;;;8.05;4.57;;;27.70;62.10;;;;;;5115101;28;20542;-65
2022/05/10 12:22:50;;;;;;;4.40;4.00;;;27.70;61.90;;;;;;5114699;28;20031;-65
2022/05/10 12:26:03;;;;;;;4.13;3.70;;;27.50;60.50;;;;;;5114764;28;20027;-66
2022/05/10 12:28:48;;;;;;;4.63;3.85;;;27.50;60.20;;;;;;5104054;28;20046;-64
2022/05/10 12:31:32;;;;;;;8.23;4.57;;;27.70;60.40;;;;;;5115101;28;20027;-64
2022/05/10 12:34:00;;;;;;;4.15;3.70;;;27.80;60.90;;;;;;5114492;28;20055;-64
2022/05/10 12:36:41;;;;;;;5.90;4.50;;;27.80;61.60;;;;;;5114795;28;20058;-66
2022/05/10 12:39:23;;;;;;;3.90;3.50;;;27.70;61.00;;;;;;5114667;28;20387;-66
2022/05/10 12:41:53;;;;;;;4.18;3.78;;;27.40;61.00;;;;;;5115071;28;20031;-66
2022/05/10 12:44:47;;;;;;;5.30;4.10;;;27.40;61.20;;;;;;5114963;28;20020;-67
2022/05/10 12:47:39;;;;;;;4.13;3.70;;;27.40;60.70;;;;;;5112098;28;20067;-65
2022/05/10 12:50:24;;;;;;;6.35;3.58;;;27.40;60.20;;;;;;5114870;28;20030;-65
2022/05/10 12:52:49;;;;;;;8.45;3.90;;;27.30;60.50;;;;;;5114467;28;20094;-65
2022/05/10 12:55:24;;;;;;;7.75;4.03;;;27.30;61.10;;;;;;5114149;28;20170;-65
2022/05/10 12:57:58;;;;;;;3.97;3.55;;;27.30;60.90;;;;;;5113032;28;20031;-66
2022/05/10 13:00:27;;;;;;;4.07;3.35;;;27.40;60.10;;;;;;5112869;28;20026;-65
2022/05/10 13:03:04;;;;;;;5.70;3.47;;;27.30;59.70;;;;;;5114148;28;20022;-65
2022/05/10 13:05:58;;;;;;;8.27;3.38;;;27.30;60.50;;;;;;5114031;28;20445;-65
2022/05/10 13:08:42;;;;;;;6.55;3.72;;;27.30;60.10;;;;;;5113924;28;20023;-64
2022/05/10 13:11:07;;;;;;;3.92;3.47;;;27.40;59.90;;;;;;5114162;28;20032;-66
2022/05/10 13:13:33;;;;;;;7.18;3.97;;;27.50;59.90;;;;;;5113714;28;20033;-64
2022/05/10 13:16:01;;;;;;;4.03;3.45;;;27.60;60.20;;;;;;5114399;28;20026;-64
2022/05/10 13:18:28;;;;;;;4.82;3.95;;;27.70;60.60;;;;;;5113714;28;20024;-64
2022/05/10 13:20:57;;;;;;;3.95;3.55;;;27.70;60.80;;;;;;5113945;28;20043;-64
2022/05/10 13:23:29;;;;;;;4.70;3.67;;;27.70;60.50;;;;;;5113561;28;20024;-64
2022/05/10 13:25:54;;;;;;;4.40;3.88;;;27.80;60.50;;;;;;5114445;28;20357;-63
2022/05/10 13:28:24;;;;;;;6.55;4.13;;;27.80;60.80;;;;;;5114222;28;20057;-64
2022/05/10 13:30:53;;;;;;;6.25;3.75;;;27.70;61.50;;;;;;5114517;28;20028;-64
2022/05/10 13:33:25;;;;;;;4.20;3.80;;;27.70;62.10;;;;;;5113633;28;20088;-64